Charlottesville, VA

1:31 PM EDT on September 23, 2014 (GMT -0400)
Off Hydraulic Road | Change Station
CLOSE
Current Station
Personal Weather Station
Location: Charlottesville, VA
Elevation: 558 ft
Nearby Weather Stations

Elev 558 ft 38.08 °N, 78.50 °W | Updated 11 seconds ago

Partly Cloudy
Partly Cloudy
60.7 °F
Feels Like 60.7 °F
N
0.0
Wind Variable Wind from North
Gusts 0.0 mph

Today
High -- | Low -- °F
--% Chance of Precip.
Yesterday
High -- | Low -- °F
Precip. -- in
7:02 AM 7:09 PM
Waning Crescent, 0% visible
Pressure 30.36 in
Visibility 10.0 miles
Clouds Clear
Dew Point 48 °F
Humidity 63%
Rainfall 0.00 in
Snow Depth Not available.
UV 8 out of 12
Pollen 5.00 out of 12
Air Quality Not available.
Flu Activity Not available.
METAR KCHO 231653Z 36004KT 10SM CLR 17/06 A3036 RMK AO2 SLP280 T01720056

More Conditions Fewer Conditions

Pressure 30.36 in
Visibility 10.0 miles
Clouds Clear
Dew Point 48 °F
Humidity 63%
Rainfall 0.00 in
Snow Depth Not available.
UV 8 out of 12
Pollen 5.00 out of 12
Air Quality Not available.
Flu Activity Not available.
METAR KCHO 231653Z 36004KT 10SM CLR 17/06 A3036 RMK AO2 SLP280 T01720056

More Conditions Fewer Conditions

10-Day Weather Forecast

Almanac

Astronomy

Sep. 23, 2014 Rise Set
Actual Time 7:02 AM EDT 7:09 PM EDT
Civil Twilight 6:36 AM EDT 7:35 PM EDT
Nautical Twilight 6:05 AM EDT 8:06 PM EDT
Astronomical Twilight 5:34 AM EDT 8:37 PM EDT
Moon 6:25 AM EDT 6:47 PM EDT
Length of Visible Light 12h 59m
Length of Day
12h 06m
Tomorrow will be 2m 26s shorter.
Waning Crescent, 0% of the Moon is Illuminated
Today
Waning Crescent
Sep 24
New
Oct 1
First Quarter
Oct 8
Full
Oct 15
Last Quarter

Today's Extremes

State Highs State Lows

Community

WunderPhotos

Upload Photos

1,755,758 photos uploaded!

WunderBlogs® & News

Nearby

Snow Depth

Station Depth Elevation
No new snow has been reported.

Earthquake Activity

City Distance Mag. Time & Date
No recent earthquake activity has been reported nearby.
Minimum magnitude displayed is 2.5.

Coastal Water Temperatures

Place Temperature
No Stations Reporting

Nearby Weather Stations